sensor_id;sensor_type;location;lat;lon;timestamp;P1;durP1;ratioP1;P2;durP2;ratioP2
54388;SDS011;40975;50.390;8.640;2023-11-18T00:00:57;14.05;;;5.57;;
54388;SDS011;40975;50.390;8.640;2023-11-18T00:03:23;13.57;;;5.95;;
54388;SDS011;40975;50.390;8.640;2023-11-18T00:05:49;12.43;;;4.93;;
54388;SDS011;40975;50.390;8.640;2023-11-18T00:08:15;16.92;;;6.65;;
54388;SDS011;40975;50.390;8.640;2023-11-18T00:10:40;13.40;;;6.03;;
54388;SDS011;40975;50.390;8.640;2023-11-18T00:13:05;9.13;;;4.68;;
54388;SDS011;40975;50.390;8.640;2023-11-18T00:15:31;11.85;;;4.93;;
54388;SDS011;40975;50.390;8.640;2023-11-18T00:17:57;10.00;;;4.75;;
54388;SDS011;40975;50.390;8.640;2023-11-18T00:20:22;15.57;;;5.32;;
54388;SDS011;40975;50.390;8.640;2023-11-18T00:26:35;10.82;;;4.63;;
54388;SDS011;40975;50.390;8.640;2023-11-18T00:29:01;10.50;;;4.93;;
54388;SDS011;40975;50.390;8.640;2023-11-18T00:31:27;11.77;;;4.63;;
54388;SDS011;40975;50.390;8.640;2023-11-18T00:33:53;7.90;;;4.25;;
54388;SDS011;40975;50.390;8.640;2023-11-18T00:36:19;11.38;;;5.20;;
54388;SDS011;40975;50.390;8.640;2023-11-18T00:38:44;9.85;;;5.00;;
54388;SDS011;40975;50.390;8.640;2023-11-18T00:41:10;11.05;;;5.22;;
54388;SDS011;40975;50.390;8.640;2023-11-18T00:43:36;13.40;;;5.38;;
54388;SDS011;40975;50.390;8.640;2023-11-18T00:46:01;14.02;;;5.60;;
54388;SDS011;40975;50.390;8.640;2023-11-18T00:48:28;10.80;;;4.88;;
54388;SDS011;40975;50.390;8.640;2023-11-18T00:50:53;12.00;;;6.00;;
54388;SDS011;40975;50.390;8.640;2023-11-18T00:53:19;15.25;;;6.20;;
54388;SDS011;40975;50.390;8.640;2023-11-18T00:55:44;11.65;;;5.35;;
54388;SDS011;40975;50.390;8.640;2023-11-18T00:58:10;14.60;;;6.03;;
54388;SDS011;40975;50.390;8.640;2023-11-18T01:00:35;15.10;;;7.20;;
54388;SDS011;40975;50.390;8.640;2023-11-18T01:03:01;13.55;;;4.72;;
54388;SDS011;40975;50.390;8.640;2023-11-18T01:05:27;18.70;;;6.40;;
54388;SDS011;40975;50.390;8.640;2023-11-18T01:07:52;14.13;;;5.40;;
54388;SDS011;40975;50.390;8.640;2023-11-18T01:10:18;12.57;;;5.63;;
54388;SDS011;40975;50.390;8.640;2023-11-18T01:12:44;10.70;;;4.97;;
54388;SDS011;40975;50.390;8.640;2023-11-18T01:15:10;11.15;;;5.75;;
54388;SDS011;40975;50.390;8.640;2023-11-18T01:17:36;13.45;;;5.78;;
54388;SDS011;40975;50.390;8.640;2023-11-18T01:20:01;13.35;;;6.15;;
54388;SDS011;40975;50.390;8.640;2023-11-18T01:22:33;13.27;;;5.63;;
54388;SDS011;40975;50.390;8.640;2023-11-18T01:24:59;11.75;;;5.18;;
54388;SDS011;40975;50.390;8.640;2023-11-18T01:27:25;9.15;;;4.88;;
54388;SDS011;40975;50.390;8.640;2023-11-18T01:29:51;13.45;;;4.50;;
54388;SDS011;40975;50.390;8.640;2023-11-18T01:32:16;13.95;;;6.18;;
54388;SDS011;40975;50.390;8.640;2023-11-18T01:34:42;10.45;;;4.30;;
54388;SDS011;40975;50.390;8.640;2023-11-18T01:37:09;11.18;;;4.53;;
54388;SDS011;40975;50.390;8.640;2023-11-18T01:39:35;12.25;;;5.45;;
54388;SDS011;40975;50.390;8.640;2023-11-18T01:42:01;10.48;;;5.38;;
54388;SDS011;40975;50.390;8.640;2023-11-18T01:44:28;12.07;;;5.43;;
54388;SDS011;40975;50.390;8.640;2023-11-18T01:46:54;12.15;;;4.78;;
54388;SDS011;40975;50.390;8.640;2023-11-18T01:49:20;16.67;;;5.68;;
54388;SDS011;40975;50.390;8.640;2023-11-18T01:51:46;14.60;;;5.60;;
54388;SDS011;40975;50.390;8.640;2023-11-18T01:54:12;12.00;;;5.28;;
54388;SDS011;40975;50.390;8.640;2023-11-18T01:56:41;13.63;;;6.53;;
54388;SDS011;40975;50.390;8.640;2023-11-18T01:59:11;11.77;;;5.07;;
54388;SDS011;40975;50.390;8.640;2023-11-18T02:01:43;13.68;;;4.93;;
54388;SDS011;40975;50.390;8.640;2023-11-18T02:04:11;19.38;;;6.72;;
54388;SDS011;40975;50.390;8.640;2023-11-18T02:06:37;14.40;;;5.25;;
54388;SDS011;40975;50.390;8.640;2023-11-18T02:09:03;13.55;;;5.10;;
54388;SDS011;40975;50.390;8.640;2023-11-18T02:11:32;18.95;;;6.57;;
54388;SDS011;40975;50.390;8.640;2023-11-18T02:14:07;19.40;;;5.25;;
54388;SDS011;40975;50.390;8.640;2023-11-18T02:16:38;16.35;;;6.10;;
54388;SDS011;40975;50.390;8.640;2023-11-18T02:19:07;22.33;;;6.80;;
54388;SDS011;40975;50.390;8.640;2023-11-18T02:21:42;15.60;;;6.13;;
54388;SDS011;40975;50.390;8.640;2023-11-18T02:24:09;13.68;;;5.25;;
54388;SDS011;40975;50.390;8.640;2023-11-18T02:26:35;16.58;;;5.20;;
54388;SDS011;40975;50.390;8.640;2023-11-18T02:29:00;17.67;;;5.38;;
54388;SDS011;40975;50.390;8.640;2023-11-18T02:31:30;23.48;;;5.68;;
54388;SDS011;40975;50.390;8.640;2023-11-18T02:34:02;16.85;;;5.32;;
54388;SDS011;40975;50.390;8.640;2023-11-18T02:36:41;22.50;;;4.50;;
54388;SDS011;40975;50.390;8.640;2023-11-18T02:39:16;18.50;;;5.68;;
54388;SDS011;40975;50.390;8.640;2023-11-18T02:41:58;17.73;;;4.88;;
54388;SDS011;40975;50.390;8.640;2023-11-18T02:44:27;11.77;;;4.15;;
54388;SDS011;40975;50.390;8.640;2023-11-18T02:46:57;12.10;;;4.80;;
54388;SDS011;40975;50.390;8.640;2023-11-18T02:49:23;13.52;;;4.72;;
54388;SDS011;40975;50.390;8.640;2023-11-18T02:51:48;12.27;;;4.63;;
54388;SDS011;40975;50.390;8.640;2023-11-18T02:54:14;16.13;;;4.85;;
54388;SDS011;40975;50.390;8.640;2023-11-18T02:56:41;16.83;;;6.03;;
54388;SDS011;40975;50.390;8.640;2023-11-18T02:59:06;21.52;;;4.72;;
54388;SDS011;40975;50.390;8.640;2023-11-18T03:01:32;9.27;;;4.65;;
54388;SDS011;40975;50.390;8.640;2023-11-18T03:04:01;18.10;;;5.40;;
54388;SDS011;40975;50.390;8.640;2023-11-18T03:06:27;21.60;;;5.57;;
54388;SDS011;40975;50.390;8.640;2023-11-18T03:08:52;26.50;;;5.32;;
54388;SDS011;40975;50.390;8.640;2023-11-18T03:11:19;17.50;;;3.90;;
54388;SDS011;40975;50.390;8.640;2023-11-18T03:13:44;9.93;;;4.70;;
54388;SDS011;40975;50.390;8.640;2023-11-18T03:16:11;20.50;;;5.80;;
54388;SDS011;40975;50.390;8.640;2023-11-18T03:18:41;13.82;;;5.13;;
54388;SDS011;40975;50.390;8.640;2023-11-18T03:21:13;15.18;;;4.80;;
54388;SDS011;40975;50.390;8.640;2023-11-18T03:23:40;11.90;;;5.30;;
54388;SDS011;40975;50.390;8.640;2023-11-18T03:26:09;11.73;;;5.03;;
54388;SDS011;40975;50.390;8.640;2023-11-18T03:28:38;19.60;;;5.43;;
54388;SDS011;40975;50.390;8.640;2023-11-18T03:31:03;23.30;;;5.53;;
54388;SDS011;40975;50.390;8.640;2023-11-18T03:33:29;17.02;;;5.32;;
54388;SDS011;40975;50.390;8.640;2023-11-18T03:35:55;24.67;;;5.53;;
54388;SDS011;40975;50.390;8.640;2023-11-18T03:38:21;12.45;;;3.75;;
54388;SDS011;40975;50.390;8.640;2023-11-18T03:40:47;17.77;;;4.22;;
54388;SDS011;40975;50.390;8.640;2023-11-18T03:43:12;26.23;;;4.90;;
54388;SDS011;40975;50.390;8.640;2023-11-18T03:45:41;14.90;;;4.30;;
54388;SDS011;40975;50.390;8.640;2023-11-18T03:48:07;19.40;;;3.92;;
54388;SDS011;40975;50.390;8.640;2023-11-18T03:50:33;31.00;;;4.30;;
54388;SDS011;40975;50.390;8.640;2023-11-18T03:53:00;17.95;;;4.22;;
54388;SDS011;40975;50.390;8.640;2023-11-18T03:55:28;12.32;;;3.50;;
54388;SDS011;40975;50.390;8.640;2023-11-18T03:57:53;27.10;;;4.05;;
54388;SDS011;40975;50.390;8.640;2023-11-18T04:00:19;36.38;;;4.90;;
54388;SDS011;40975;50.390;8.640;2023-11-18T04:02:45;23.30;;;3.60;;
54388;SDS011;40975;50.390;8.640;2023-11-18T04:05:11;18.90;;;3.58;;
54388;SDS011;40975;50.390;8.640;2023-11-18T04:07:37;21.63;;;3.45;;
54388;SDS011;40975;50.390;8.640;2023-11-18T04:10:02;14.10;;;3.08;;
54388;SDS011;40975;50.390;8.640;2023-11-18T04:12:33;16.83;;;4.20;;
54388;SDS011;40975;50.390;8.640;2023-11-18T04:14:58;16.23;;;2.78;;
54388;SDS011;40975;50.390;8.640;2023-11-18T04:17:23;11.15;;;3.95;;
54388;SDS011;40975;50.390;8.640;2023-11-18T04:19:52;8.07;;;3.05;;
54388;SDS011;40975;50.390;8.640;2023-11-18T04:22:20;13.00;;;3.35;;
54388;SDS011;40975;50.390;8.640;2023-11-18T04:24:46;11.65;;;2.45;;
54388;SDS011;40975;50.390;8.640;2023-11-18T04:27:12;13.18;;;2.65;;
54388;SDS011;40975;50.390;8.640;2023-11-18T04:29:37;10.25;;;3.00;;
54388;SDS011;40975;50.390;8.640;2023-11-18T04:32:03;12.23;;;2.90;;
54388;SDS011;40975;50.390;8.640;2023-11-18T04:34:29;14.18;;;3.25;;
54388;SDS011;40975;50.390;8.640;2023-11-18T04:36:54;11.50;;;3.17;;
54388;SDS011;40975;50.390;8.640;2023-11-18T04:39:20;7.38;;;2.83;;
54388;SDS011;40975;50.390;8.640;2023-11-18T04:41:47;13.23;;;3.63;;
54388;SDS011;40975;50.390;8.640;2023-11-18T04:44:12;11.55;;;2.92;;
54388;SDS011;40975;50.390;8.640;2023-11-18T04:46:39;17.08;;;3.92;;
54388;SDS011;40975;50.390;8.640;2023-11-18T04:49:04;9.10;;;3.33;;
54388;SDS011;40975;50.390;8.640;2023-11-18T04:51:30;25.23;;;4.80;;
54388;SDS011;40975;50.390;8.640;2023-11-18T04:53:55;13.02;;;4.57;;
54388;SDS011;40975;50.390;8.640;2023-11-18T04:56:21;11.25;;;4.28;;
54388;SDS011;40975;50.390;8.640;2023-11-18T04:58:46;16.13;;;4.45;;
54388;SDS011;40975;50.390;8.640;2023-11-18T05:01:13;14.07;;;4.10;;
54388;SDS011;40975;50.390;8.640;2023-11-18T05:03:39;12.80;;;4.25;;
54388;SDS011;40975;50.390;8.640;2023-11-18T05:06:05;15.23;;;5.45;;
54388;SDS011;40975;50.390;8.640;2023-11-18T05:08:30;15.77;;;4.30;;
54388;SDS011;40975;50.390;8.640;2023-11-18T05:10:56;16.45;;;11.13;;
54388;SDS011;40975;50.390;8.640;2023-11-18T05:13:22;15.20;;;6.18;;
54388;SDS011;40975;50.390;8.640;2023-11-18T05:15:48;17.65;;;7.75;;
54388;SDS011;40975;50.390;8.640;2023-11-18T05:18:14;24.73;;;7.90;;
54388;SDS011;40975;50.390;8.640;2023-11-18T05:20:41;23.00;;;7.40;;
54388;SDS011;40975;50.390;8.640;2023-11-18T05:23:07;16.65;;;4.82;;
54388;SDS011;40975;50.390;8.640;2023-11-18T05:25:35;12.25;;;4.82;;
54388;SDS011;40975;50.390;8.640;2023-11-18T05:28:01;13.10;;;5.55;;
54388;SDS011;40975;50.390;8.640;2023-11-18T05:30:26;22.60;;;4.97;;
54388;SDS011;40975;50.390;8.640;2023-11-18T05:32:51;19.95;;;5.20;;
54388;SDS011;40975;50.390;8.640;2023-11-18T05:35:17;14.23;;;4.47;;
54388;SDS011;40975;50.390;8.640;2023-11-18T05:37:42;16.13;;;5.57;;
54388;SDS011;40975;50.390;8.640;2023-11-18T05:40:09;21.95;;;5.55;;
54388;SDS011;40975;50.390;8.640;2023-11-18T05:42:36;30.38;;;5.90;;
54388;SDS011;40975;50.390;8.640;2023-11-18T05:45:05;22.05;;;4.97;;
54388;SDS011;40975;50.390;8.640;2023-11-18T05:47:32;21.05;;;5.53;;
54388;SDS011;40975;50.390;8.640;2023-11-18T05:49:59;17.23;;;4.60;;
54388;SDS011;40975;50.390;8.640;2023-11-18T05:52:24;12.88;;;5.13;;
54388;SDS011;40975;50.390;8.640;2023-11-18T05:54:50;15.88;;;4.88;;
54388;SDS011;40975;50.390;8.640;2023-11-18T05:57:15;12.77;;;5.50;;
54388;SDS011;40975;50.390;8.640;2023-11-18T05:59:41;10.40;;;4.63;;
54388;SDS011;40975;50.390;8.640;2023-11-18T06:02:07;9.35;;;3.78;;
54388;SDS011;40975;50.390;8.640;2023-11-18T06:04:33;8.68;;;4.60;;
54388;SDS011;40975;50.390;8.640;2023-11-18T06:06:59;21.55;;;5.30;;
54388;SDS011;40975;50.390;8.640;2023-11-18T06:09:24;7.63;;;4.10;;
54388;SDS011;40975;50.390;8.640;2023-11-18T06:11:51;20.80;;;5.72;;
54388;SDS011;40975;50.390;8.640;2023-11-18T06:14:18;16.42;;;7.82;;
54388;SDS011;40975;50.390;8.640;2023-11-18T06:16:44;20.33;;;9.23;;
54388;SDS011;40975;50.390;8.640;2023-11-18T06:19:09;18.88;;;6.00;;
54388;SDS011;40975;50.390;8.640;2023-11-18T06:21:35;12.65;;;5.13;;
54388;SDS011;40975;50.390;8.640;2023-11-18T06:24:02;17.83;;;5.72;;
54388;SDS011;40975;50.390;8.640;2023-11-18T06:26:29;14.07;;;4.95;;
54388;SDS011;40975;50.390;8.640;2023-11-18T06:28:55;23.02;;;5.05;;
54388;SDS011;40975;50.390;8.640;2023-11-18T06:31:21;16.33;;;5.35;;
54388;SDS011;40975;50.390;8.640;2023-11-18T06:33:48;17.02;;;6.05;;
54388;SDS011;40975;50.390;8.640;2023-11-18T06:38:39;17.05;;;5.75;;
54388;SDS011;40975;50.390;8.640;2023-11-18T06:41:09;20.17;;;5.72;;
54388;SDS011;40975;50.390;8.640;2023-11-18T06:43:37;26.95;;;6.63;;
54388;SDS011;40975;50.390;8.640;2023-11-18T06:46:30;30.73;;;7.55;;
54388;SDS011;40975;50.390;8.640;2023-11-18T06:49:00;26.65;;;5.68;;
54388;SDS011;40975;50.390;8.640;2023-11-18T06:51:30;28.92;;;9.43;;
54388;SDS011;40975;50.390;8.640;2023-11-18T06:53:57;42.70;;;20.02;;
54388;SDS011;40975;50.390;8.640;2023-11-18T06:56:26;20.45;;;7.75;;
54388;SDS011;40975;50.390;8.640;2023-11-18T06:58:52;19.90;;;7.10;;
54388;SDS011;40975;50.390;8.640;2023-11-18T07:01:18;31.13;;;5.95;;
54388;SDS011;40975;50.390;8.640;2023-11-18T07:03:43;40.72;;;6.07;;
54388;SDS011;40975;50.390;8.640;2023-11-18T07:06:10;45.85;;;7.10;;
54388;SDS011;40975;50.390;8.640;2023-11-18T07:08:35;18.50;;;5.72;;
54388;SDS011;40975;50.390;8.640;2023-11-18T07:11:04;27.20;;;5.95;;
54388;SDS011;40975;50.390;8.640;2023-11-18T07:13:31;17.55;;;6.68;;
54388;SDS011;40975;50.390;8.640;2023-11-18T07:15:58;25.70;;;5.82;;
54388;SDS011;40975;50.390;8.640;2023-11-18T07:18:24;23.27;;;6.07;;
54388;SDS011;40975;50.390;8.640;2023-11-18T07:20:49;22.48;;;5.90;;
54388;SDS011;40975;50.390;8.640;2023-11-18T07:23:21;15.32;;;5.90;;
54388;SDS011;40975;50.390;8.640;2023-11-18T07:25:46;23.05;;;5.82;;
54388;SDS011;40975;50.390;8.640;2023-11-18T07:28:12;29.80;;;7.20;;
54388;SDS011;40975;50.390;8.640;2023-11-18T07:30:42;17.98;;;6.43;;
54388;SDS011;40975;50.390;8.640;2023-11-18T07:33:08;22.65;;;6.88;;
54388;SDS011;40975;50.390;8.640;2023-11-18T07:35:33;22.52;;;6.53;;
54388;SDS011;40975;50.390;8.640;2023-11-18T07:38:00;26.95;;;6.93;;
54388;SDS011;40975;50.390;8.640;2023-11-18T07:40:26;16.60;;;5.80;;
54388;SDS011;40975;50.390;8.640;2023-11-18T07:42:56;21.23;;;6.40;;
54388;SDS011;40975;50.390;8.640;2023-11-18T07:45:22;24.88;;;5.95;;
54388;SDS011;40975;50.390;8.640;2023-11-18T07:47:51;36.60;;;7.53;;
54388;SDS011;40975;50.390;8.640;2023-11-18T07:50:17;28.63;;;6.15;;
54388;SDS011;40975;50.390;8.640;2023-11-18T07:52:45;29.42;;;6.65;;
54388;SDS011;40975;50.390;8.640;2023-11-18T07:55:11;36.53;;;9.45;;
54388;SDS011;40975;50.390;8.640;2023-11-18T07:57:38;34.78;;;7.55;;
54388;SDS011;40975;50.390;8.640;2023-11-18T08:00:03;25.63;;;6.78;;
54388;SDS011;40975;50.390;8.640;2023-11-18T08:02:38;30.63;;;6.38;;
54388;SDS011;40975;50.390;8.640;2023-11-18T08:05:04;35.42;;;7.50;;
54388;SDS011;40975;50.390;8.640;2023-11-18T08:07:33;24.48;;;6.30;;
54388;SDS011;40975;50.390;8.640;2023-11-18T08:10:02;17.63;;;6.75;;
54388;SDS011;40975;50.390;8.640;2023-11-18T08:12:29;25.27;;;6.63;;
54388;SDS011;40975;50.390;8.640;2023-11-18T08:14:55;22.48;;;7.05;;
54388;SDS011;40975;50.390;8.640;2023-11-18T08:17:22;24.13;;;7.80;;
54388;SDS011;40975;50.390;8.640;2023-11-18T08:19:47;21.30;;;6.78;;
54388;SDS011;40975;50.390;8.640;2023-11-18T08:22:12;22.20;;;6.70;;
54388;SDS011;40975;50.390;8.640;2023-11-18T08:24:38;27.10;;;6.68;;
54388;SDS011;40975;50.390;8.640;2023-11-18T08:27:04;22.80;;;6.75;;
54388;SDS011;40975;50.390;8.640;2023-11-18T08:29:29;26.58;;;7.03;;
54388;SDS011;40975;50.390;8.640;2023-11-18T08:31:57;23.30;;;7.07;;
54388;SDS011;40975;50.390;8.640;2023-11-18T08:34:22;22.02;;;7.05;;
54388;SDS011;40975;50.390;8.640;2023-11-18T08:36:50;22.95;;;6.03;;
54388;SDS011;40975;50.390;8.640;2023-11-18T08:39:16;23.70;;;7.20;;
54388;SDS011;40975;50.390;8.640;2023-11-18T08:41:44;29.73;;;7.20;;
54388;SDS011;40975;50.390;8.640;2023-11-18T08:44:10;23.05;;;7.78;;
54388;SDS011;40975;50.390;8.640;2023-11-18T08:46:38;23.70;;;6.35;;
54388;SDS011;40975;50.390;8.640;2023-11-18T08:49:04;21.08;;;7.35;;
54388;SDS011;40975;50.390;8.640;2023-11-18T08:51:36;18.17;;;6.55;;
54388;SDS011;40975;50.390;8.640;2023-11-18T08:54:02;31.20;;;6.65;;
54388;SDS011;40975;50.390;8.640;2023-11-18T08:56:47;20.77;;;6.68;;
54388;SDS011;40975;50.390;8.640;2023-11-18T08:59:19;18.88;;;8.15;;
54388;SDS011;40975;50.390;8.640;2023-11-18T09:01:53;14.90;;;7.10;;
54388;SDS011;40975;50.390;8.640;2023-11-18T09:04:24;15.38;;;5.97;;
54388;SDS011;40975;50.390;8.640;2023-11-18T09:06:50;17.27;;;7.22;;
54388;SDS011;40975;50.390;8.640;2023-11-18T09:09:22;22.42;;;8.23;;
54388;SDS011;40975;50.390;8.640;2023-11-18T09:11:51;18.60;;;6.95;;
54388;SDS011;40975;50.390;8.640;2023-11-18T09:14:18;26.70;;;7.38;;
54388;SDS011;40975;50.390;8.640;2023-11-18T09:16:44;26.35;;;8.32;;
54388;SDS011;40975;50.390;8.640;2023-11-18T09:19:10;23.63;;;6.97;;
54388;SDS011;40975;50.390;8.640;2023-11-18T09:21:35;16.98;;;7.40;;
54388;SDS011;40975;50.390;8.640;2023-11-18T09:24:01;24.05;;;8.75;;
54388;SDS011;40975;50.390;8.640;2023-11-18T09:26:32;20.90;;;8.25;;
54388;SDS011;40975;50.390;8.640;2023-11-18T09:28:58;22.67;;;8.35;;
54388;SDS011;40975;50.390;8.640;2023-11-18T09:31:26;22.08;;;7.15;;
54388;SDS011;40975;50.390;8.640;2023-11-18T09:33:52;25.67;;;9.48;;
54388;SDS011;40975;50.390;8.640;2023-11-18T09:36:17;24.90;;;9.00;;
54388;SDS011;40975;50.390;8.640;2023-11-18T09:38:43;20.45;;;8.55;;
54388;SDS011;40975;50.390;8.640;2023-11-18T09:41:11;20.10;;;7.05;;
54388;SDS011;40975;50.390;8.640;2023-11-18T09:43:41;20.88;;;6.72;;
54388;SDS011;40975;50.390;8.640;2023-11-18T09:46:10;19.10;;;7.38;;
54388;SDS011;40975;50.390;8.640;2023-11-18T09:48:44;21.90;;;9.13;;
54388;SDS011;40975;50.390;8.640;2023-11-18T09:51:19;16.75;;;7.07;;
54388;SDS011;40975;50.390;8.640;2023-11-18T09:53:50;19.45;;;8.80;;
54388;SDS011;40975;50.390;8.640;2023-11-18T09:56:23;20.50;;;7.47;;
54388;SDS011;40975;50.390;8.640;2023-11-18T10:01:44;20.15;;;7.30;;
54388;SDS011;40975;50.390;8.640;2023-11-18T10:04:18;23.42;;;8.35;;
54388;SDS011;40975;50.390;8.640;2023-11-18T10:06:45;20.50;;;8.73;;
54388;SDS011;40975;50.390;8.640;2023-11-18T10:09:12;26.52;;;8.70;;
54388;SDS011;40975;50.390;8.640;2023-11-18T10:11:44;26.35;;;10.15;;
54388;SDS011;40975;50.390;8.640;2023-11-18T10:14:15;22.73;;;9.25;;
54388;SDS011;40975;50.390;8.640;2023-11-18T10:16:41;25.13;;;8.02;;
54388;SDS011;40975;50.390;8.640;2023-11-18T10:19:06;20.08;;;9.13;;
54388;SDS011;40975;50.390;8.640;2023-11-18T10:21:36;19.65;;;8.57;;
54388;SDS011;40975;50.390;8.640;2023-11-18T10:24:05;23.60;;;8.48;;
54388;SDS011;40975;50.390;8.640;2023-11-18T10:26:39;22.55;;;8.57;;
54388;SDS011;40975;50.390;8.640;2023-11-18T10:29:25;24.67;;;9.30;;
54388;SDS011;40975;50.390;8.640;2023-11-18T10:32:04;20.60;;;7.75;;
54388;SDS011;40975;50.390;8.640;2023-11-18T10:34:41;23.08;;;8.93;;
54388;SDS011;40975;50.390;8.640;2023-11-18T10:37:07;25.25;;;7.40;;
54388;SDS011;40975;50.390;8.640;2023-11-18T10:39:35;23.63;;;9.23;;
54388;SDS011;40975;50.390;8.640;2023-11-18T10:42:02;24.15;;;10.63;;
54388;SDS011;40975;50.390;8.640;2023-11-18T10:44:28;21.90;;;9.00;;
54388;SDS011;40975;50.390;8.640;2023-11-18T10:46:54;21.15;;;8.32;;
54388;SDS011;40975;50.390;8.640;2023-11-18T10:49:23;22.50;;;8.98;;
54388;SDS011;40975;50.390;8.640;2023-11-18T10:51:52;22.00;;;8.88;;
54388;SDS011;40975;50.390;8.640;2023-11-18T10:54:17;21.58;;;8.95;;
54388;SDS011;40975;50.390;8.640;2023-11-18T10:56:47;20.63;;;9.05;;
54388;SDS011;40975;50.390;8.640;2023-11-18T10:59:16;18.13;;;9.02;;
54388;SDS011;40975;50.390;8.640;2023-11-18T11:01:43;20.48;;;8.52;;
54388;SDS011;40975;50.390;8.640;2023-11-18T11:04:12;20.55;;;8.20;;
54388;SDS011;40975;50.390;8.640;2023-11-18T11:06:41;22.80;;;9.00;;
54388;SDS011;40975;50.390;8.640;2023-11-18T11:09:25;19.98;;;8.43;;
54388;SDS011;40975;50.390;8.640;2023-11-18T11:12:00;19.55;;;8.05;;
54388;SDS011;40975;50.390;8.640;2023-11-18T11:14:33;23.38;;;8.98;;
54388;SDS011;40975;50.390;8.640;2023-11-18T11:17:06;24.38;;;10.30;;
54388;SDS011;40975;50.390;8.640;2023-11-18T11:19:50;18.88;;;8.10;;
54388;SDS011;40975;50.390;8.640;2023-11-18T11:22:27;26.23;;;15.02;;
54388;SDS011;40975;50.390;8.640;2023-11-18T11:25:07;25.83;;;13.95;;
54388;SDS011;40975;50.390;8.640;2023-11-18T11:27:48;34.20;;;17.40;;
54388;SDS011;40975;50.390;8.640;2023-11-18T11:30:31;20.85;;;9.75;;
54388;SDS011;40975;50.390;8.640;2023-11-18T11:33:17;20.55;;;8.57;;
54388;SDS011;40975;50.390;8.640;2023-11-18T11:35:55;24.42;;;9.57;;
54388;SDS011;40975;50.390;8.640;2023-11-18T11:38:22;25.25;;;11.27;;
54388;SDS011;40975;50.390;8.640;2023-11-18T11:40:49;24.73;;;10.23;;
54388;SDS011;40975;50.390;8.640;2023-11-18T11:43:18;24.40;;;9.38;;
54388;SDS011;40975;50.390;8.640;2023-11-18T11:45:49;21.70;;;9.50;;
54388;SDS011;40975;50.390;8.640;2023-11-18T11:48:17;20.15;;;10.00;;
54388;SDS011;40975;50.390;8.640;2023-11-18T11:53:20;26.00;;;9.13;;
54388;SDS011;40975;50.390;8.640;2023-11-18T11:55:54;27.92;;;10.57;;
54388;SDS011;40975;50.390;8.640;2023-11-18T11:58:30;27.00;;;10.55;;
54388;SDS011;40975;50.390;8.640;2023-11-18T12:01:00;21.30;;;8.85;;
54388;SDS011;40975;50.390;8.640;2023-11-18T12:03:38;20.83;;;8.90;;
54388;SDS011;40975;50.390;8.640;2023-11-18T12:06:04;21.87;;;9.30;;
54388;SDS011;40975;50.390;8.640;2023-11-18T12:08:32;24.55;;;9.88;;
54388;SDS011;40975;50.390;8.640;2023-11-18T12:11:01;26.10;;;10.15;;
54388;SDS011;40975;50.390;8.640;2023-11-18T12:13:27;23.77;;;10.48;;
54388;SDS011;40975;50.390;8.640;2023-11-18T12:15:56;29.92;;;11.13;;
54388;SDS011;40975;50.390;8.640;2023-11-18T12:18:23;35.78;;;18.73;;
54388;SDS011;40975;50.390;8.640;2023-11-18T12:20:51;34.90;;;12.93;;
54388;SDS011;40975;50.390;8.640;2023-11-18T12:23:20;33.03;;;15.57;;
54388;SDS011;40975;50.390;8.640;2023-11-18T12:25:50;22.20;;;10.05;;
54388;SDS011;40975;50.390;8.640;2023-11-18T12:28:30;25.33;;;10.70;;
54388;SDS011;40975;50.390;8.640;2023-11-18T12:31:00;31.73;;;12.63;;
54388;SDS011;40975;50.390;8.640;2023-11-18T12:42:20;30.90;;;11.23;;
54388;SDS011;40975;50.390;8.640;2023-11-18T12:48:08;30.58;;;12.50;;
54388;SDS011;40975;50.390;8.640;2023-11-18T12:50:42;29.20;;;12.23;;
54388;SDS011;40975;50.390;8.640;2023-11-18T12:53:10;26.63;;;11.52;;
54388;SDS011;40975;50.390;8.640;2023-11-18T12:55:39;36.03;;;12.10;;
54388;SDS011;40975;50.390;8.640;2023-11-18T12:58:05;34.80;;;11.90;;
54388;SDS011;40975;50.390;8.640;2023-11-18T13:00:32;28.30;;;10.75;;
54388;SDS011;40975;50.390;8.640;2023-11-18T13:02:59;23.10;;;10.38;;
54388;SDS011;40975;50.390;8.640;2023-11-18T13:05:25;25.05;;;10.68;;
54388;SDS011;40975;50.390;8.640;2023-11-18T13:08:02;25.30;;;10.00;;
54388;SDS011;40975;50.390;8.640;2023-11-18T13:10:28;29.80;;;13.23;;
54388;SDS011;40975;50.390;8.640;2023-11-18T13:12:54;27.58;;;11.32;;
54388;SDS011;40975;50.390;8.640;2023-11-18T13:15:19;29.02;;;11.57;;
54388;SDS011;40975;50.390;8.640;2023-11-18T13:18:04;26.90;;;11.88;;
54388;SDS011;40975;50.390;8.640;2023-11-18T13:20:32;29.00;;;11.23;;
54388;SDS011;40975;50.390;8.640;2023-11-18T13:23:01;24.10;;;11.18;;
54388;SDS011;40975;50.390;8.640;2023-11-18T13:25:33;28.55;;;12.48;;
54388;SDS011;40975;50.390;8.640;2023-11-18T13:28:04;27.85;;;12.48;;
54388;SDS011;40975;50.390;8.640;2023-11-18T13:30:32;25.38;;;11.82;;
54388;SDS011;40975;50.390;8.640;2023-11-18T13:32:58;19.17;;;8.95;;
54388;SDS011;40975;50.390;8.640;2023-11-18T13:35:23;20.88;;;8.85;;
54388;SDS011;40975;50.390;8.640;2023-11-18T13:37:49;18.17;;;8.18;;
54388;SDS011;40975;50.390;8.640;2023-11-18T13:40:15;21.00;;;9.55;;
54388;SDS011;40975;50.390;8.640;2023-11-18T13:42:43;23.00;;;11.35;;
54388;SDS011;40975;50.390;8.640;2023-11-18T13:45:11;25.25;;;10.48;;
54388;SDS011;40975;50.390;8.640;2023-11-18T13:47:50;22.55;;;10.05;;
54388;SDS011;40975;50.390;8.640;2023-11-18T13:50:19;19.13;;;9.75;;
54388;SDS011;40975;50.390;8.640;2023-11-18T13:52:45;14.32;;;7.65;;
54388;SDS011;40975;50.390;8.640;2023-11-18T13:55:12;21.50;;;10.80;;
54388;SDS011;40975;50.390;8.640;2023-11-18T13:57:42;16.63;;;8.32;;
54388;SDS011;40975;50.390;8.640;2023-11-18T14:00:12;19.08;;;10.38;;
54388;SDS011;40975;50.390;8.640;2023-11-18T14:02:41;16.88;;;9.88;;
54388;SDS011;40975;50.390;8.640;2023-11-18T14:05:16;16.42;;;7.25;;
54388;SDS011;40975;50.390;8.640;2023-11-18T14:07:42;14.95;;;7.78;;
54388;SDS011;40975;50.390;8.640;2023-11-18T14:10:08;17.88;;;9.68;;
54388;SDS011;40975;50.390;8.640;2023-11-18T14:12:36;16.90;;;8.52;;
54388;SDS011;40975;50.390;8.640;2023-11-18T14:15:02;18.13;;;8.88;;
54388;SDS011;40975;50.390;8.640;2023-11-18T14:17:28;17.13;;;8.52;;
54388;SDS011;40975;50.390;8.640;2023-11-18T14:19:53;18.80;;;10.07;;
54388;SDS011;40975;50.390;8.640;2023-11-18T14:22:19;20.23;;;10.40;;
54388;SDS011;40975;50.390;8.640;2023-11-18T14:24:44;16.65;;;9.27;;
54388;SDS011;40975;50.390;8.640;2023-11-18T14:27:09;19.02;;;8.43;;
54388;SDS011;40975;50.390;8.640;2023-11-18T14:29:35;16.45;;;8.48;;
54388;SDS011;40975;50.390;8.640;2023-11-18T14:32:01;17.67;;;8.23;;
54388;SDS011;40975;50.390;8.640;2023-11-18T14:34:26;19.88;;;9.13;;
54388;SDS011;40975;50.390;8.640;2023-11-18T14:36:52;16.83;;;9.18;;
54388;SDS011;40975;50.390;8.640;2023-11-18T14:39:17;17.92;;;9.50;;
54388;SDS011;40975;50.390;8.640;2023-11-18T14:41:47;20.13;;;11.35;;
54388;SDS011;40975;50.390;8.640;2023-11-18T14:44:12;17.88;;;9.07;;
54388;SDS011;40975;50.390;8.640;2023-11-18T14:46:38;20.30;;;11.02;;
54388;SDS011;40975;50.390;8.640;2023-11-18T14:49:06;20.65;;;9.70;;
54388;SDS011;40975;50.390;8.640;2023-11-18T14:51:32;20.95;;;11.05;;
54388;SDS011;40975;50.390;8.640;2023-11-18T14:53:57;22.60;;;10.10;;
54388;SDS011;40975;50.390;8.640;2023-11-18T14:56:23;19.63;;;10.65;;
54388;SDS011;40975;50.390;8.640;2023-11-18T14:58:48;24.10;;;10.30;;
54388;SDS011;40975;50.390;8.640;2023-11-18T15:01:15;20.83;;;10.02;;